sensor_id;sensor_type;location;lat;lon;timestamp;P1;durP1;ratioP1;P2;durP2;ratioP2
51529;SDS011;37613;51.788;21.582;2024-02-26T00:03:20;45.50;;;27.00;;
51529;SDS011;37613;51.788;21.582;2024-02-26T00:07:22;46.20;;;25.40;;
51529;SDS011;37613;51.788;21.582;2024-02-26T00:11:24;40.10;;;23.90;;
51529;SDS011;37613;51.788;21.582;2024-02-26T00:15:26;40.30;;;23.00;;
51529;SDS011;37613;51.788;21.582;2024-02-26T00:19:29;40.60;;;25.70;;
51529;SDS011;37613;51.788;21.582;2024-02-26T00:23:31;43.50;;;24.80;;
51529;SDS011;37613;51.788;21.582;2024-02-26T00:27:33;37.10;;;19.70;;
51529;SDS011;37613;51.788;21.582;2024-02-26T00:31:36;33.80;;;20.30;;
51529;SDS011;37613;51.788;21.582;2024-02-26T00:35:39;42.30;;;22.40;;
51529;SDS011;37613;51.788;21.582;2024-02-26T00:39:41;36.90;;;19.90;;
51529;SDS011;37613;51.788;21.582;2024-02-26T00:43:47;44.00;;;23.40;;
51529;SDS011;37613;51.788;21.582;2024-02-26T00:47:49;41.20;;;22.20;;
51529;SDS011;37613;51.788;21.582;2024-02-26T00:51:51;45.00;;;22.40;;
51529;SDS011;37613;51.788;21.582;2024-02-26T00:55:53;39.60;;;22.10;;
51529;SDS011;37613;51.788;21.582;2024-02-26T00:59:55;41.50;;;23.60;;
51529;SDS011;37613;51.788;21.582;2024-02-26T01:03:58;44.00;;;26.00;;
51529;SDS011;37613;51.788;21.582;2024-02-26T01:08:00;47.90;;;27.90;;
51529;SDS011;37613;51.788;21.582;2024-02-26T01:12:02;61.20;;;31.40;;
51529;SDS011;37613;51.788;21.582;2024-02-26T01:16:05;55.50;;;28.00;;
51529;SDS011;37613;51.788;21.582;2024-02-26T01:20:07;55.70;;;33.60;;
51529;SDS011;37613;51.788;21.582;2024-02-26T01:24:10;61.40;;;39.50;;
51529;SDS011;37613;51.788;21.582;2024-02-26T01:28:15;46.50;;;30.90;;
51529;SDS011;37613;51.788;21.582;2024-02-26T01:32:18;48.20;;;28.20;;
51529;SDS011;37613;51.788;21.582;2024-02-26T01:40:23;40.50;;;26.30;;
51529;SDS011;37613;51.788;21.582;2024-02-26T01:44:28;45.60;;;29.70;;
51529;SDS011;37613;51.788;21.582;2024-02-26T01:48:31;49.50;;;29.70;;
51529;SDS011;37613;51.788;21.582;2024-02-26T01:52:33;37.50;;;23.60;;
51529;SDS011;37613;51.788;21.582;2024-02-26T01:56:36;39.10;;;25.00;;
51529;SDS011;37613;51.788;21.582;2024-02-26T02:00:41;38.00;;;23.20;;
51529;SDS011;37613;51.788;21.582;2024-02-26T02:04:44;39.80;;;21.90;;
51529;SDS011;37613;51.788;21.582;2024-02-26T02:08:46;41.70;;;21.90;;
51529;SDS011;37613;51.788;21.582;2024-02-26T02:12:48;32.40;;;19.40;;
51529;SDS011;37613;51.788;21.582;2024-02-26T02:16:51;31.00;;;19.30;;
51529;SDS011;37613;51.788;21.582;2024-02-26T02:20:53;34.60;;;21.80;;
51529;SDS011;37613;51.788;21.582;2024-02-26T02:24:55;60.30;;;34.60;;
51529;SDS011;37613;51.788;21.582;2024-02-26T02:28:57;70.20;;;37.40;;
51529;SDS011;37613;51.788;21.582;2024-02-26T02:33:00;37.60;;;24.80;;
51529;SDS011;37613;51.788;21.582;2024-02-26T02:37:03;40.20;;;22.80;;
51529;SDS011;37613;51.788;21.582;2024-02-26T02:41:04;31.50;;;21.30;;
51529;SDS011;37613;51.788;21.582;2024-02-26T02:45:07;40.30;;;22.00;;
51529;SDS011;37613;51.788;21.582;2024-02-26T02:49:09;33.90;;;19.90;;
51529;SDS011;37613;51.788;21.582;2024-02-26T02:53:12;30.60;;;18.90;;
51529;SDS011;37613;51.788;21.582;2024-02-26T02:57:14;31.60;;;19.70;;
51529;SDS011;37613;51.788;21.582;2024-02-26T03:01:16;30.90;;;19.50;;
51529;SDS011;37613;51.788;21.582;2024-02-26T03:05:18;27.20;;;17.80;;
51529;SDS011;37613;51.788;21.582;2024-02-26T03:09:20;25.80;;;17.10;;
51529;SDS011;37613;51.788;21.582;2024-02-26T03:13:22;29.10;;;18.20;;
51529;SDS011;37613;51.788;21.582;2024-02-26T03:17:24;34.60;;;18.80;;
51529;SDS011;37613;51.788;21.582;2024-02-26T03:21:27;35.60;;;20.10;;
51529;SDS011;37613;51.788;21.582;2024-02-26T03:25:29;30.60;;;18.40;;
51529;SDS011;37613;51.788;21.582;2024-02-26T03:29:31;27.10;;;18.00;;
51529;SDS011;37613;51.788;21.582;2024-02-26T03:33:33;29.10;;;17.90;;
51529;SDS011;37613;51.788;21.582;2024-02-26T03:37:36;28.70;;;18.00;;
51529;SDS011;37613;51.788;21.582;2024-02-26T03:41:38;27.90;;;17.80;;
51529;SDS011;37613;51.788;21.582;2024-02-26T03:45:40;33.80;;;18.60;;
51529;SDS011;37613;51.788;21.582;2024-02-26T03:49:42;36.90;;;22.20;;
51529;SDS011;37613;51.788;21.582;2024-02-26T03:53:44;43.10;;;26.00;;
51529;SDS011;37613;51.788;21.582;2024-02-26T03:57:46;48.80;;;29.80;;
51529;SDS011;37613;51.788;21.582;2024-02-26T04:01:48;47.60;;;28.40;;
51529;SDS011;37613;51.788;21.582;2024-02-26T04:05:51;45.40;;;25.00;;
51529;SDS011;37613;51.788;21.582;2024-02-26T04:09:59;36.50;;;24.40;;
51529;SDS011;37613;51.788;21.582;2024-02-26T04:14:01;39.20;;;24.00;;
51529;SDS011;37613;51.788;21.582;2024-02-26T04:18:04;42.70;;;26.50;;
51529;SDS011;37613;51.788;21.582;2024-02-26T04:22:06;44.10;;;25.60;;
51529;SDS011;37613;51.788;21.582;2024-02-26T04:26:09;36.90;;;23.50;;
51529;SDS011;37613;51.788;21.582;2024-02-26T04:30:11;34.70;;;22.20;;
51529;SDS011;37613;51.788;21.582;2024-02-26T04:34:13;41.50;;;24.70;;
51529;SDS011;37613;51.788;21.582;2024-02-26T04:38:15;49.90;;;28.10;;
51529;SDS011;37613;51.788;21.582;2024-02-26T04:42:18;46.90;;;26.80;;
51529;SDS011;37613;51.788;21.582;2024-02-26T04:46:20;49.30;;;27.90;;
51529;SDS011;37613;51.788;21.582;2024-02-26T04:50:23;43.00;;;25.00;;
51529;SDS011;37613;51.788;21.582;2024-02-26T04:54:25;35.80;;;24.50;;
51529;SDS011;37613;51.788;21.582;2024-02-26T04:58:27;39.30;;;25.10;;
51529;SDS011;37613;51.788;21.582;2024-02-26T05:02:29;41.80;;;25.60;;
51529;SDS011;37613;51.788;21.582;2024-02-26T05:06:33;38.30;;;24.80;;
51529;SDS011;37613;51.788;21.582;2024-02-26T05:10:36;41.10;;;25.50;;
51529;SDS011;37613;51.788;21.582;2024-02-26T05:14:42;45.20;;;26.50;;
51529;SDS011;37613;51.788;21.582;2024-02-26T05:18:44;41.50;;;25.40;;
51529;SDS011;37613;51.788;21.582;2024-02-26T05:22:46;40.50;;;26.60;;
51529;SDS011;37613;51.788;21.582;2024-02-26T05:30:51;38.60;;;26.50;;
51529;SDS011;37613;51.788;21.582;2024-02-26T05:34:53;47.30;;;27.80;;
51529;SDS011;37613;51.788;21.582;2024-02-26T05:38:55;42.40;;;26.70;;
51529;SDS011;37613;51.788;21.582;2024-02-26T05:42:59;49.20;;;26.00;;
51529;SDS011;37613;51.788;21.582;2024-02-26T05:47:01;39.50;;;26.00;;
51529;SDS011;37613;51.788;21.582;2024-02-26T05:51:03;39.20;;;24.10;;
51529;SDS011;37613;51.788;21.582;2024-02-26T05:55:06;38.20;;;23.30;;
51529;SDS011;37613;51.788;21.582;2024-02-26T05:59:12;43.30;;;25.40;;
51529;SDS011;37613;51.788;21.582;2024-02-26T06:03:14;49.00;;;30.30;;
51529;SDS011;37613;51.788;21.582;2024-02-26T06:07:16;40.20;;;28.10;;
51529;SDS011;37613;51.788;21.582;2024-02-26T06:11:18;40.10;;;26.80;;
51529;SDS011;37613;51.788;21.582;2024-02-26T06:15:21;38.10;;;27.10;;
51529;SDS011;37613;51.788;21.582;2024-02-26T06:19:22;56.40;;;34.10;;
51529;SDS011;37613;51.788;21.582;2024-02-26T06:23:26;55.50;;;34.90;;
51529;SDS011;37613;51.788;21.582;2024-02-26T06:27:28;73.90;;;43.80;;
51529;SDS011;37613;51.788;21.582;2024-02-26T06:31:30;433.50;;;264.70;;
51529;SDS011;37613;51.788;21.582;2024-02-26T06:35:32;127.10;;;78.30;;
51529;SDS011;37613;51.788;21.582;2024-02-26T06:39:34;107.00;;;56.60;;
51529;SDS011;37613;51.788;21.582;2024-02-26T06:43:36;82.30;;;45.30;;
51529;SDS011;37613;51.788;21.582;2024-02-26T06:47:38;94.10;;;53.30;;
51529;SDS011;37613;51.788;21.582;2024-02-26T06:51:40;69.20;;;37.90;;
51529;SDS011;37613;51.788;21.582;2024-02-26T06:55:42;52.00;;;32.30;;
51529;SDS011;37613;51.788;21.582;2024-02-26T06:59:44;57.50;;;37.90;;
51529;SDS011;37613;51.788;21.582;2024-02-26T07:03:48;33.10;;;22.70;;
51529;SDS011;37613;51.788;21.582;2024-02-26T07:07:50;26.80;;;19.80;;
51529;SDS011;37613;51.788;21.582;2024-02-26T07:11:52;22.50;;;17.00;;
51529;SDS011;37613;51.788;21.582;2024-02-26T07:15:54;22.90;;;16.50;;
51529;SDS011;37613;51.788;21.582;2024-02-26T07:19:56;23.40;;;17.40;;
51529;SDS011;37613;51.788;21.582;2024-02-26T07:23:58;36.60;;;24.10;;
51529;SDS011;37613;51.788;21.582;2024-02-26T07:28:00;42.30;;;26.10;;
51529;SDS011;37613;51.788;21.582;2024-02-26T07:32:03;27.80;;;20.40;;
51529;SDS011;37613;51.788;21.582;2024-02-26T07:36:05;29.10;;;19.90;;
51529;SDS011;37613;51.788;21.582;2024-02-26T07:40:08;40.90;;;25.60;;
51529;SDS011;37613;51.788;21.582;2024-02-26T07:44:10;42.50;;;27.00;;
51529;SDS011;37613;51.788;21.582;2024-02-26T07:48:12;24.10;;;16.80;;
51529;SDS011;37613;51.788;21.582;2024-02-26T07:52:15;29.30;;;21.10;;
51529;SDS011;37613;51.788;21.582;2024-02-26T07:56:17;26.80;;;19.30;;
51529;SDS011;37613;51.788;21.582;2024-02-26T08:00:19;29.00;;;18.30;;
51529;SDS011;37613;51.788;21.582;2024-02-26T08:04:22;21.70;;;14.50;;
51529;SDS011;37613;51.788;21.582;2024-02-26T08:08:24;21.90;;;15.10;;
51529;SDS011;37613;51.788;21.582;2024-02-26T08:12:26;17.40;;;13.90;;
51529;SDS011;37613;51.788;21.582;2024-02-26T08:16:28;14.20;;;11.80;;
51529;SDS011;37613;51.788;21.582;2024-02-26T08:20:30;15.30;;;12.50;;
51529;SDS011;37613;51.788;21.582;2024-02-26T08:24:33;18.50;;;11.90;;
51529;SDS011;37613;51.788;21.582;2024-02-26T08:28:36;17.80;;;12.40;;
51529;SDS011;37613;51.788;21.582;2024-02-26T08:32:38;23.80;;;15.10;;
51529;SDS011;37613;51.788;21.582;2024-02-26T08:36:40;69.90;;;33.90;;
51529;SDS011;37613;51.788;21.582;2024-02-26T08:40:44;14.30;;;10.80;;
51529;SDS011;37613;51.788;21.582;2024-02-26T08:44:46;9.70;;;8.50;;
51529;SDS011;37613;51.788;21.582;2024-02-26T08:48:48;8.60;;;7.10;;
51529;SDS011;37613;51.788;21.582;2024-02-26T08:52:50;6.60;;;6.00;;
51529;SDS011;37613;51.788;21.582;2024-02-26T08:56:54;7.00;;;6.30;;
51529;SDS011;37613;51.788;21.582;2024-02-26T09:00:56;9.60;;;6.80;;
51529;SDS011;37613;51.788;21.582;2024-02-26T09:04:59;8.10;;;6.40;;
51529;SDS011;37613;51.788;21.582;2024-02-26T09:09:01;7.80;;;5.60;;
51529;SDS011;37613;51.788;21.582;2024-02-26T09:13:03;8.10;;;5.80;;
51529;SDS011;37613;51.788;21.582;2024-02-26T09:17:05;9.40;;;4.80;;
51529;SDS011;37613;51.788;21.582;2024-02-26T09:21:09;8.40;;;5.60;;
51529;SDS011;37613;51.788;21.582;2024-02-26T09:25:11;40.90;;;18.20;;
51529;SDS011;37613;51.788;21.582;2024-02-26T09:29:13;10.80;;;8.20;;
51529;SDS011;37613;51.788;21.582;2024-02-26T09:33:15;6.10;;;4.70;;
51529;SDS011;37613;51.788;21.582;2024-02-26T09:37:17;7.50;;;4.80;;
51529;SDS011;37613;51.788;21.582;2024-02-26T09:41:19;8.30;;;5.50;;
51529;SDS011;37613;51.788;21.582;2024-02-26T09:45:23;5.30;;;4.40;;
51529;SDS011;37613;51.788;21.582;2024-02-26T09:49:28;6.70;;;5.40;;
51529;SDS011;37613;51.788;21.582;2024-02-26T09:53:31;4.00;;;3.60;;
51529;SDS011;37613;51.788;21.582;2024-02-26T09:57:34;17.80;;;12.20;;
51529;SDS011;37613;51.788;21.582;2024-02-26T10:01:37;9.20;;;4.70;;
51529;SDS011;37613;51.788;21.582;2024-02-26T10:05:43;8.40;;;5.40;;
51529;SDS011;37613;51.788;21.582;2024-02-26T10:09:46;5.50;;;3.60;;
51529;SDS011;37613;51.788;21.582;2024-02-26T10:13:48;4.10;;;3.70;;
51529;SDS011;37613;51.788;21.582;2024-02-26T10:17:50;4.40;;;3.30;;
51529;SDS011;37613;51.788;21.582;2024-02-26T10:22:00;4.70;;;3.40;;
51529;SDS011;37613;51.788;21.582;2024-02-26T10:26:03;15.00;;;6.00;;
51529;SDS011;37613;51.788;21.582;2024-02-26T10:30:19;14.10;;;6.20;;
51529;SDS011;37613;51.788;21.582;2024-02-26T10:34:22;6.00;;;3.90;;
51529;SDS011;37613;51.788;21.582;2024-02-26T10:38:25;3.00;;;2.70;;
51529;SDS011;37613;51.788;21.582;2024-02-26T10:42:27;5.40;;;3.90;;
51529;SDS011;37613;51.788;21.582;2024-02-26T10:46:29;8.70;;;4.50;;
51529;SDS011;37613;51.788;21.582;2024-02-26T10:50:31;4.40;;;3.30;;
51529;SDS011;37613;51.788;21.582;2024-02-26T10:54:33;4.70;;;3.30;;
51529;SDS011;37613;51.788;21.582;2024-02-26T10:58:40;6.30;;;3.30;;
51529;SDS011;37613;51.788;21.582;2024-02-26T11:02:44;5.90;;;4.50;;
51529;SDS011;37613;51.788;21.582;2024-02-26T11:06:48;4.50;;;3.60;;
51529;SDS011;37613;51.788;21.582;2024-02-26T11:10:54;23.00;;;14.30;;
51529;SDS011;37613;51.788;21.582;2024-02-26T11:14:58;3.40;;;3.10;;
51529;SDS011;37613;51.788;21.582;2024-02-26T11:19:02;4.40;;;2.70;;
51529;SDS011;37613;51.788;21.582;2024-02-26T11:23:05;12.70;;;5.20;;
51529;SDS011;37613;51.788;21.582;2024-02-26T11:27:09;9.00;;;4.30;;
51529;SDS011;37613;51.788;21.582;2024-02-26T11:31:13;36.10;;;23.40;;
51529;SDS011;37613;51.788;21.582;2024-02-26T11:35:15;10.90;;;6.40;;
51529;SDS011;37613;51.788;21.582;2024-02-26T11:39:20;6.90;;;4.30;;
51529;SDS011;37613;51.788;21.582;2024-02-26T11:47:57;5.10;;;3.70;;
51529;SDS011;37613;51.788;21.582;2024-02-26T11:52:04;5.00;;;3.30;;
51529;SDS011;37613;51.788;21.582;2024-02-26T11:56:27;4.20;;;3.40;;
51529;SDS011;37613;51.788;21.582;2024-02-26T12:00:29;4.70;;;2.80;;
51529;SDS011;37613;51.788;21.582;2024-02-26T12:04:33;2.50;;;2.30;;
51529;SDS011;37613;51.788;21.582;2024-02-26T12:08:38;3.60;;;2.40;;
51529;SDS011;37613;51.788;21.582;2024-02-26T12:12:40;3.40;;;2.60;;
51529;SDS011;37613;51.788;21.582;2024-02-26T12:16:43;11.50;;;5.80;;
51529;SDS011;37613;51.788;21.582;2024-02-26T12:20:46;3.60;;;2.90;;
51529;SDS011;37613;51.788;21.582;2024-02-26T12:24:57;13.00;;;6.40;;
51529;SDS011;37613;51.788;21.582;2024-02-26T12:29:00;4.30;;;3.90;;
51529;SDS011;37613;51.788;21.582;2024-02-26T12:33:02;12.20;;;7.60;;
51529;SDS011;37613;51.788;21.582;2024-02-26T12:37:05;6.40;;;3.20;;
51529;SDS011;37613;51.788;21.582;2024-02-26T12:41:10;6.70;;;4.70;;
51529;SDS011;37613;51.788;21.582;2024-02-26T12:45:12;12.00;;;5.50;;
51529;SDS011;37613;51.788;21.582;2024-02-26T12:49:16;20.60;;;12.20;;
51529;SDS011;37613;51.788;21.582;2024-02-26T12:57:21;8.20;;;6.40;;
51529;SDS011;37613;51.788;21.582;2024-02-26T13:01:23;34.60;;;25.40;;
51529;SDS011;37613;51.788;21.582;2024-02-26T13:05:27;10.50;;;8.00;;
51529;SDS011;37613;51.788;21.582;2024-02-26T13:09:32;37.00;;;18.00;;
51529;SDS011;37613;51.788;21.582;2024-02-26T13:13:36;19.70;;;10.40;;
51529;SDS011;37613;51.788;21.582;2024-02-26T13:17:39;10.90;;;5.10;;
51529;SDS011;37613;51.788;21.582;2024-02-26T13:21:40;4.70;;;4.00;;
51529;SDS011;37613;51.788;21.582;2024-02-26T13:25:43;6.70;;;4.80;;
51529;SDS011;37613;51.788;21.582;2024-02-26T13:29:45;6.30;;;5.30;;
51529;SDS011;37613;51.788;21.582;2024-02-26T13:33:47;7.20;;;5.20;;
51529;SDS011;37613;51.788;21.582;2024-02-26T13:37:50;9.90;;;6.50;;
51529;SDS011;37613;51.788;21.582;2024-02-26T13:41:52;11.50;;;7.50;;
51529;SDS011;37613;51.788;21.582;2024-02-26T13:45:55;15.10;;;9.60;;
51529;SDS011;37613;51.788;21.582;2024-02-26T13:49:58;11.30;;;8.20;;
51529;SDS011;37613;51.788;21.582;2024-02-26T13:54:03;26.80;;;7.70;;
51529;SDS011;37613;51.788;21.582;2024-02-26T13:58:06;14.90;;;9.10;;
51529;SDS011;37613;51.788;21.582;2024-02-26T14:02:09;13.80;;;9.60;;
51529;SDS011;37613;51.788;21.582;2024-02-26T14:06:11;11.40;;;8.10;;
51529;SDS011;37613;51.788;21.582;2024-02-26T14:10:13;11.90;;;8.60;;
51529;SDS011;37613;51.788;21.582;2024-02-26T14:14:15;17.70;;;9.90;;
51529;SDS011;37613;51.788;21.582;2024-02-26T14:18:17;14.00;;;9.20;;
51529;SDS011;37613;51.788;21.582;2024-02-26T14:22:19;15.80;;;9.70;;
51529;SDS011;37613;51.788;21.582;2024-02-26T14:26:24;14.90;;;9.20;;
51529;SDS011;37613;51.788;21.582;2024-02-26T14:30:26;15.80;;;11.20;;
51529;SDS011;37613;51.788;21.582;2024-02-26T14:34:29;20.40;;;14.00;;
51529;SDS011;37613;51.788;21.582;2024-02-26T14:38:31;25.20;;;16.50;;
51529;SDS011;37613;51.788;21.582;2024-02-26T14:42:32;73.00;;;51.80;;
51529;SDS011;37613;51.788;21.582;2024-02-26T14:46:36;37.40;;;24.80;;
51529;SDS011;37613;51.788;21.582;2024-02-26T14:50:38;34.80;;;22.30;;
51529;SDS011;37613;51.788;21.582;2024-02-26T14:54:41;36.30;;;23.30;;
51529;SDS011;37613;51.788;21.582;2024-02-26T14:58:43;36.90;;;25.20;;
51529;SDS011;37613;51.788;21.582;2024-02-26T15:02:45;38.60;;;24.90;;
51529;SDS011;37613;51.788;21.582;2024-02-26T15:10:50;54.00;;;35.80;;
51529;SDS011;37613;51.788;21.582;2024-02-26T15:14:52;58.30;;;40.00;;
51529;SDS011;37613;51.788;21.582;2024-02-26T15:18:54;59.70;;;38.50;;
51529;SDS011;37613;51.788;21.582;2024-02-26T15:22:56;92.90;;;56.70;;
51529;SDS011;37613;51.788;21.582;2024-02-26T15:26:58;65.80;;;36.60;;
51529;SDS011;37613;51.788;21.582;2024-02-26T15:31:00;54.60;;;28.80;;
51529;SDS011;37613;51.788;21.582;2024-02-26T15:35:02;49.00;;;28.30;;
51529;SDS011;37613;51.788;21.582;2024-02-26T15:39:04;64.30;;;40.20;;
51529;SDS011;37613;51.788;21.582;2024-02-26T15:43:08;58.90;;;29.40;;
51529;SDS011;37613;51.788;21.582;2024-02-26T15:47:10;71.90;;;37.50;;
51529;SDS011;37613;51.788;21.582;2024-02-26T15:51:19;53.50;;;31.50;;
51529;SDS011;37613;51.788;21.582;2024-02-26T15:55:45;59.70;;;33.80;;
51529;SDS011;37613;51.788;21.582;2024-02-26T15:59:49;57.50;;;30.80;;
51529;SDS011;37613;51.788;21.582;2024-02-26T16:03:53;81.00;;;49.50;;
51529;SDS011;37613;51.788;21.582;2024-02-26T16:07:56;55.80;;;33.90;;
51529;SDS011;37613;51.788;21.582;2024-02-26T16:12:10;375.00;;;178.50;;
51529;SDS011;37613;51.788;21.582;2024-02-26T16:16:33;83.60;;;49.20;;
51529;SDS011;37613;51.788;21.582;2024-02-26T16:20:37;70.10;;;42.90;;
51529;SDS011;37613;51.788;21.582;2024-02-26T16:24:39;67.40;;;44.70;;
51529;SDS011;37613;51.788;21.582;2024-02-26T16:28:42;85.50;;;54.80;;
51529;SDS011;37613;51.788;21.582;2024-02-26T16:32:44;183.70;;;99.60;;
51529;SDS011;37613;51.788;21.582;2024-02-26T16:36:45;78.50;;;46.10;;
51529;SDS011;37613;51.788;21.582;2024-02-26T16:40:48;93.00;;;53.50;;
51529;SDS011;37613;51.788;21.582;2024-02-26T16:44:49;121.40;;;67.70;;
51529;SDS011;37613;51.788;21.582;2024-02-26T16:48:51;231.00;;;116.30;;
51529;SDS011;37613;51.788;21.582;2024-02-26T16:52:53;221.60;;;112.40;;
51529;SDS011;37613;51.788;21.582;2024-02-26T16:56:57;239.70;;;134.30;;
51529;SDS011;37613;51.788;21.582;2024-02-26T17:00:59;145.00;;;83.60;;
51529;SDS011;37613;51.788;21.582;2024-02-26T17:05:01;79.50;;;48.90;;
51529;SDS011;37613;51.788;21.582;2024-02-26T17:09:04;89.00;;;55.00;;
51529;SDS011;37613;51.788;21.582;2024-02-26T17:13:09;95.50;;;60.40;;
51529;SDS011;37613;51.788;21.582;2024-02-26T17:17:11;120.40;;;76.40;;
51529;SDS011;37613;51.788;21.582;2024-02-26T17:21:16;121.40;;;69.80;;
51529;SDS011;37613;51.788;21.582;2024-02-26T17:25:19;136.20;;;73.60;;
51529;SDS011;37613;51.788;21.582;2024-02-26T17:29:21;123.10;;;73.30;;
51529;SDS011;37613;51.788;21.582;2024-02-26T17:33:23;97.30;;;57.00;;
51529;SDS011;37613;51.788;21.582;2024-02-26T17:37:25;140.40;;;82.30;;
51529;SDS011;37613;51.788;21.582;2024-02-26T17:41:27;110.60;;;68.50;;
51529;SDS011;37613;51.788;21.582;2024-02-26T17:45:29;99.10;;;68.40;;
51529;SDS011;37613;51.788;21.582;2024-02-26T17:49:31;102.20;;;62.00;;
51529;SDS011;37613;51.788;21.582;2024-02-26T17:53:33;106.70;;;59.80;;
51529;SDS011;37613;51.788;21.582;2024-02-26T17:57:36;121.50;;;69.10;;
51529;SDS011;37613;51.788;21.582;2024-02-26T18:01:38;88.40;;;51.80;;
51529;SDS011;37613;51.788;21.582;2024-02-26T18:05:40;80.30;;;50.30;;
51529;SDS011;37613;51.788;21.582;2024-02-26T18:13:45;58.30;;;37.00;;
51529;SDS011;37613;51.788;21.582;2024-02-26T18:17:47;58.70;;;34.70;;
51529;SDS011;37613;51.788;21.582;2024-02-26T18:21:50;71.00;;;42.10;;
51529;SDS011;37613;51.788;21.582;2024-02-26T18:25:52;71.60;;;44.80;;
51529;SDS011;37613;51.788;21.582;2024-02-26T18:29:54;82.10;;;51.70;;
51529;SDS011;37613;51.788;21.582;2024-02-26T18:33:57;77.80;;;50.20;;
51529;SDS011;37613;51.788;21.582;2024-02-26T18:37:59;75.80;;;42.20;;
51529;SDS011;37613;51.788;21.582;2024-02-26T18:42:02;114.90;;;63.80;;
51529;SDS011;37613;51.788;21.582;2024-02-26T18:46:07;84.10;;;49.80;;
51529;SDS011;37613;51.788;21.582;2024-02-26T18:50:09;49.70;;;31.70;;
51529;SDS011;37613;51.788;21.582;2024-02-26T18:54:12;60.90;;;36.10;;
51529;SDS011;37613;51.788;21.582;2024-02-26T18:58:14;51.50;;;30.40;;
51529;SDS011;37613;51.788;21.582;2024-02-26T19:02:17;38.70;;;24.70;;
51529;SDS011;37613;51.788;21.582;2024-02-26T19:06:20;42.00;;;26.90;;
51529;SDS011;37613;51.788;21.582;2024-02-26T19:10:23;56.40;;;30.20;;
51529;SDS011;37613;51.788;21.582;2024-02-26T19:14:29;44.80;;;29.40;;
51529;SDS011;37613;51.788;21.582;2024-02-26T19:18:32;46.70;;;28.30;;
51529;SDS011;37613;51.788;21.582;2024-02-26T19:22:34;49.90;;;29.40;;
51529;SDS011;37613;51.788;21.582;2024-02-26T19:26:43;39.30;;;25.90;;
51529;SDS011;37613;51.788;21.582;2024-02-26T19:30:46;44.70;;;25.30;;
51529;SDS011;37613;51.788;21.582;2024-02-26T19:34:49;50.00;;;29.20;;
51529;SDS011;37613;51.788;21.582;2024-02-26T19:38:51;53.70;;;32.60;;
51529;SDS011;37613;51.788;21.582;2024-02-26T19:42:54;47.90;;;29.10;;
51529;SDS011;37613;51.788;21.582;2024-02-26T19:46:57;46.80;;;28.00;;
51529;SDS011;37613;51.788;21.582;2024-02-26T19:51:00;42.30;;;25.90;;
51529;SDS011;37613;51.788;21.582;2024-02-26T19:59:06;46.70;;;30.90;;
51529;SDS011;37613;51.788;21.582;2024-02-26T20:03:10;57.00;;;33.80;;
51529;SDS011;37613;51.788;21.582;2024-02-26T20:11:18;72.60;;;37.20;;
51529;SDS011;37613;51.788;21.582;2024-02-26T20:15:21;55.60;;;32.40;;
51529;SDS011;37613;51.788;21.582;2024-02-26T20:19:26;53.40;;;30.70;;
51529;SDS011;37613;51.788;21.582;2024-02-26T20:23:30;53.60;;;31.50;;
51529;SDS011;37613;51.788;21.582;2024-02-26T20:27:35;44.90;;;28.60;;
51529;SDS011;37613;51.788;21.582;2024-02-26T20:31:37;47.10;;;30.20;;
51529;SDS011;37613;51.788;21.582;2024-02-26T20:39:43;46.30;;;29.10;;
51529;SDS011;37613;51.788;21.582;2024-02-26T20:43:46;48.90;;;30.80;;
51529;SDS011;37613;51.788;21.582;2024-02-26T20:47:48;46.00;;;29.10;;
51529;SDS011;37613;51.788;21.582;2024-02-26T20:51:53;47.60;;;28.60;;
51529;SDS011;37613;51.788;21.582;2024-02-26T20:56:00;43.40;;;28.20;;
51529;SDS011;37613;51.788;21.582;2024-02-26T21:00:03;45.60;;;28.80;;
51529;SDS011;37613;51.788;21.582;2024-02-26T21:04:07;38.00;;;26.70;;
51529;SDS011;37613;51.788;21.582;2024-02-26T21:12:12;48.10;;;28.70;;
51529;SDS011;37613;51.788;21.582;2024-02-26T21:16:14;45.70;;;27.60;;
51529;SDS011;37613;51.788;21.582;2024-02-26T21:20:16;45.50;;;28.10;;
51529;SDS011;37613;51.788;21.582;2024-02-26T21:24:21;42.40;;;26.80;;
51529;SDS011;37613;51.788;21.582;2024-02-26T21:28:23;45.80;;;28.50;;
51529;SDS011;37613;51.788;21.582;2024-02-26T21:32:25;53.40;;;27.90;;
51529;SDS011;37613;51.788;21.582;2024-02-26T21:36:27;49.00;;;28.70;;
51529;SDS011;37613;51.788;21.582;2024-02-26T21:40:29;46.60;;;26.90;;
51529;SDS011;37613;51.788;21.582;2024-02-26T21:44:31;46.60;;;27.60;;
51529;SDS011;37613;51.788;21.582;2024-02-26T21:48:33;46.90;;;28.50;;
51529;SDS011;37613;51.788;21.582;2024-02-26T21:52:39;45.80;;;28.00;;
51529;SDS011;37613;51.788;21.582;2024-02-26T21:56:41;47.10;;;28.50;;
51529;SDS011;37613;51.788;21.582;2024-02-26T22:00:45;42.50;;;25.50;;
51529;SDS011;37613;51.788;21.582;2024-02-26T22:04:47;41.70;;;25.70;;
51529;SDS011;37613;51.788;21.582;2024-02-26T22:08:49;46.50;;;27.80;;
51529;SDS011;37613;51.788;21.582;2024-02-26T22:12:51;41.30;;;24.90;;
51529;SDS011;37613;51.788;21.582;2024-02-26T22:16:53;45.10;;;26.00;;
51529;SDS011;37613;51.788;21.582;2024-02-26T22:20:55;40.20;;;24.30;;
51529;SDS011;37613;51.788;21.582;2024-02-26T22:24:57;41.50;;;26.40;;
51529;SDS011;37613;51.788;21.582;2024-02-26T22:28:59;42.60;;;26.10;;
51529;SDS011;37613;51.788;21.582;2024-02-26T22:33:01;47.70;;;27.20;;
51529;SDS011;37613;51.788;21.582;2024-02-26T22:37:03;46.50;;;27.10;;
51529;SDS011;37613;51.788;21.582;2024-02-26T22:41:05;42.20;;;25.10;;
51529;SDS011;37613;51.788;21.582;2024-02-26T22:45:07;47.10;;;27.60;;
51529;SDS011;37613;51.788;21.582;2024-02-26T22:49:10;51.40;;;30.00;;
51529;SDS011;37613;51.788;21.582;2024-02-26T22:53:12;57.30;;;30.10;;
51529;SDS011;37613;51.788;21.582;2024-02-26T22:57:14;64.80;;;34.50;;
51529;SDS011;37613;51.788;21.582;2024-02-26T23:01:16;168.20;;;69.40;;
51529;SDS011;37613;51.788;21.582;2024-02-26T23:05:18;50.20;;;27.10;;
51529;SDS011;37613;51.788;21.582;2024-02-26T23:09:23;46.10;;;26.10;;
51529;SDS011;37613;51.788;21.582;2024-02-26T23:13:25;42.20;;;23.70;;
51529;SDS011;37613;51.788;21.582;2024-02-26T23:17:28;42.80;;;24.00;;
51529;SDS011;37613;51.788;21.582;2024-02-26T23:21:30;47.90;;;25.10;;
51529;SDS011;37613;51.788;21.582;2024-02-26T23:25:32;43.40;;;25.50;;
51529;SDS011;37613;51.788;21.582;2024-02-26T23:29:36;77.10;;;37.00;;
51529;SDS011;37613;51.788;21.582;2024-02-26T23:33:38;91.60;;;47.30;;
51529;SDS011;37613;51.788;21.582;2024-02-26T23:37:40;66.60;;;34.60;;
51529;SDS011;37613;51.788;21.582;2024-02-26T23:41:42;84.10;;;40.90;;
51529;SDS011;37613;51.788;21.582;2024-02-26T23:45:45;72.60;;;36.10;;
51529;SDS011;37613;51.788;21.582;2024-02-26T23:49:49;71.00;;;37.60;;
51529;SDS011;37613;51.788;21.582;2024-02-26T23:53:54;79.40;;;42.00;;
51529;SDS011;37613;51.788;21.582;2024-02-26T23:57:56;57.40;;;32.40;;
